sensor_id;sensor_type;location;lat;lon;timestamp;temperature;humidity
55064;DHT22;40963;52.168;21.296;2024-01-06T00:02:24;-1.20;99.90
55064;DHT22;40963;52.168;21.296;2024-01-06T00:04:51;-1.30;99.90
55064;DHT22;40963;52.168;21.296;2024-01-06T00:07:19;-1.30;99.90
55064;DHT22;40963;52.168;21.296;2024-01-06T00:09:44;-1.30;99.90
55064;DHT22;40963;52.168;21.296;2024-01-06T00:12:12;-1.40;99.90
55064;DHT22;40963;52.168;21.296;2024-01-06T00:14:37;-1.40;99.90
55064;DHT22;40963;52.168;21.296;2024-01-06T00:17:03;-1.40;99.90
55064;DHT22;40963;52.168;21.296;2024-01-06T00:19:29;-1.40;99.90
55064;DHT22;40963;52.168;21.296;2024-01-06T00:21:54;-1.40;99.90
55064;DHT22;40963;52.168;21.296;2024-01-06T00:24:20;-1.40;99.90
55064;DHT22;40963;52.168;21.296;2024-01-06T00:26:45;-1.50;99.90
55064;DHT22;40963;52.168;21.296;2024-01-06T00:29:12;-1.50;99.90
55064;DHT22;40963;52.168;21.296;2024-01-06T00:31:38;-1.50;99.90
55064;DHT22;40963;52.168;21.296;2024-01-06T00:34:03;-1.50;99.90
55064;DHT22;40963;52.168;21.296;2024-01-06T00:36:30;-1.50;99.90
55064;DHT22;40963;52.168;21.296;2024-01-06T00:38:56;-1.50;99.90
55064;DHT22;40963;52.168;21.296;2024-01-06T00:41:22;-1.60;99.90
55064;DHT22;40963;52.168;21.296;2024-01-06T00:43:48;-1.50;99.90
55064;DHT22;40963;52.168;21.296;2024-01-06T00:46:14;-1.60;99.90
55064;DHT22;40963;52.168;21.296;2024-01-06T00:48:41;-1.60;99.90
55064;DHT22;40963;52.168;21.296;2024-01-06T00:51:07;-1.60;99.90
55064;DHT22;40963;52.168;21.296;2024-01-06T00:53:32;-1.60;99.90
55064;DHT22;40963;52.168;21.296;2024-01-06T00:55:58;-1.60;99.90
55064;DHT22;40963;52.168;21.296;2024-01-06T00:58:24;-1.60;99.90
55064;DHT22;40963;52.168;21.296;2024-01-06T01:00:50;-1.50;99.90
55064;DHT22;40963;52.168;21.296;2024-01-06T01:03:16;-1.60;99.90
55064;DHT22;40963;52.168;21.296;2024-01-06T01:05:41;-1.60;99.90
55064;DHT22;40963;52.168;21.296;2024-01-06T01:08:09;-1.60;99.90
55064;DHT22;40963;52.168;21.296;2024-01-06T01:10:34;-1.60;99.90
55064;DHT22;40963;52.168;21.296;2024-01-06T01:13:00;-1.50;99.90
55064;DHT22;40963;52.168;21.296;2024-01-06T01:15:26;-1.50;99.90
55064;DHT22;40963;52.168;21.296;2024-01-06T01:17:51;-1.60;99.90
55064;DHT22;40963;52.168;21.296;2024-01-06T01:20:17;-1.60;99.90
55064;DHT22;40963;52.168;21.296;2024-01-06T01:22:43;-1.60;99.90
55064;DHT22;40963;52.168;21.296;2024-01-06T01:25:10;-1.60;99.90
55064;DHT22;40963;52.168;21.296;2024-01-06T01:27:38;-1.60;99.90
55064;DHT22;40963;52.168;21.296;2024-01-06T01:30:03;-1.60;99.90
55064;DHT22;40963;52.168;21.296;2024-01-06T01:32:31;-1.60;99.90
55064;DHT22;40963;52.168;21.296;2024-01-06T01:34:59;-1.60;99.90
55064;DHT22;40963;52.168;21.296;2024-01-06T01:37:26;-1.60;99.90
55064;DHT22;40963;52.168;21.296;2024-01-06T01:39:52;-1.60;99.90
55064;DHT22;40963;52.168;21.296;2024-01-06T01:42:18;-1.60;99.90
55064;DHT22;40963;52.168;21.296;2024-01-06T01:44:44;-1.60;99.90
55064;DHT22;40963;52.168;21.296;2024-01-06T01:47:10;-1.60;99.90
55064;DHT22;40963;52.168;21.296;2024-01-06T01:49:36;-1.60;99.90
55064;DHT22;40963;52.168;21.296;2024-01-06T01:52:03;-1.60;99.90
55064;DHT22;40963;52.168;21.296;2024-01-06T01:54:30;-1.60;99.90
55064;DHT22;40963;52.168;21.296;2024-01-06T01:56:58;-1.60;99.90
55064;DHT22;40963;52.168;21.296;2024-01-06T01:59:23;-1.60;99.90
55064;DHT22;40963;52.168;21.296;2024-01-06T02:01:50;-1.60;99.90
55064;DHT22;40963;52.168;21.296;2024-01-06T02:04:17;-1.60;99.90
55064;DHT22;40963;52.168;21.296;2024-01-06T02:06:43;-1.60;99.90
55064;DHT22;40963;52.168;21.296;2024-01-06T02:09:10;-1.60;99.90
55064;DHT22;40963;52.168;21.296;2024-01-06T02:11:36;-1.60;99.90
55064;DHT22;40963;52.168;21.296;2024-01-06T02:14:02;-1.60;99.90
55064;DHT22;40963;52.168;21.296;2024-01-06T02:16:28;-1.60;99.90
55064;DHT22;40963;52.168;21.296;2024-01-06T02:18:54;-1.60;99.90
55064;DHT22;40963;52.168;21.296;2024-01-06T02:21:21;-1.60;99.90
55064;DHT22;40963;52.168;21.296;2024-01-06T02:23:48;-1.60;99.90
55064;DHT22;40963;52.168;21.296;2024-01-06T02:26:14;-1.60;99.90
55064;DHT22;40963;52.168;21.296;2024-01-06T02:28:40;-1.60;99.90
55064;DHT22;40963;52.168;21.296;2024-01-06T02:31:08;-1.60;99.90
55064;DHT22;40963;52.168;21.296;2024-01-06T02:33:34;-1.60;99.90
55064;DHT22;40963;52.168;21.296;2024-01-06T02:36:02;-1.60;99.90
55064;DHT22;40963;52.168;21.296;2024-01-06T02:38:28;-1.60;99.90
55064;DHT22;40963;52.168;21.296;2024-01-06T02:40:53;-1.60;99.90
55064;DHT22;40963;52.168;21.296;2024-01-06T02:43:20;-1.50;99.90
55064;DHT22;40963;52.168;21.296;2024-01-06T02:45:46;-1.60;99.90
55064;DHT22;40963;52.168;21.296;2024-01-06T02:48:12;-1.50;99.90
55064;DHT22;40963;52.168;21.296;2024-01-06T02:50:38;-1.60;99.90
55064;DHT22;40963;52.168;21.296;2024-01-06T02:53:03;-1.50;99.90
55064;DHT22;40963;52.168;21.296;2024-01-06T02:55:31;-1.50;99.90
55064;DHT22;40963;52.168;21.296;2024-01-06T02:57:56;-1.50;99.90
55064;DHT22;40963;52.168;21.296;2024-01-06T03:00:22;-1.50;99.90
55064;DHT22;40963;52.168;21.296;2024-01-06T03:02:47;-1.50;99.90
55064;DHT22;40963;52.168;21.296;2024-01-06T03:05:13;-1.50;99.90
55064;DHT22;40963;52.168;21.296;2024-01-06T03:07:42;-1.50;99.90
55064;DHT22;40963;52.168;21.296;2024-01-06T03:10:08;-1.50;99.90
55064;DHT22;40963;52.168;21.296;2024-01-06T03:12:39;-1.50;99.90
55064;DHT22;40963;52.168;21.296;2024-01-06T03:15:06;-1.50;99.90
55064;DHT22;40963;52.168;21.296;2024-01-06T03:17:33;-1.50;99.90
55064;DHT22;40963;52.168;21.296;2024-01-06T03:20:01;-1.50;99.90
55064;DHT22;40963;52.168;21.296;2024-01-06T03:22:27;-1.50;99.90
55064;DHT22;40963;52.168;21.296;2024-01-06T03:24:53;-1.50;99.90
55064;DHT22;40963;52.168;21.296;2024-01-06T03:27:18;-1.50;99.90
55064;DHT22;40963;52.168;21.296;2024-01-06T03:29:44;-1.50;99.90
55064;DHT22;40963;52.168;21.296;2024-01-06T03:32:10;-1.50;99.90
55064;DHT22;40963;52.168;21.296;2024-01-06T03:34:36;-1.50;99.90
55064;DHT22;40963;52.168;21.296;2024-01-06T03:37:03;-1.50;99.90
55064;DHT22;40963;52.168;21.296;2024-01-06T03:39:28;-1.50;99.90
55064;DHT22;40963;52.168;21.296;2024-01-06T03:41:54;-1.50;99.90
55064;DHT22;40963;52.168;21.296;2024-01-06T03:44:20;-1.50;99.90
55064;DHT22;40963;52.168;21.296;2024-01-06T03:46:47;-1.50;99.90
55064;DHT22;40963;52.168;21.296;2024-01-06T03:49:14;-1.50;99.90
55064;DHT22;40963;52.168;21.296;2024-01-06T03:51:43;-1.40;99.90
55064;DHT22;40963;52.168;21.296;2024-01-06T03:54:09;-1.50;99.90
55064;DHT22;40963;52.168;21.296;2024-01-06T03:56:35;-1.40;99.90
55064;DHT22;40963;52.168;21.296;2024-01-06T03:59:00;-1.40;99.90
55064;DHT22;40963;52.168;21.296;2024-01-06T04:01:26;-1.40;99.90
55064;DHT22;40963;52.168;21.296;2024-01-06T04:03:55;-1.40;99.90
55064;DHT22;40963;52.168;21.296;2024-01-06T04:06:21;-1.40;99.90
55064;DHT22;40963;52.168;21.296;2024-01-06T04:08:47;-1.30;99.90
55064;DHT22;40963;52.168;21.296;2024-01-06T04:11:13;-1.30;99.90
55064;DHT22;40963;52.168;21.296;2024-01-06T04:13:40;-1.40;99.90
55064;DHT22;40963;52.168;21.296;2024-01-06T04:16:06;-1.40;99.90
55064;DHT22;40963;52.168;21.296;2024-01-06T04:18:32;-1.40;99.90
55064;DHT22;40963;52.168;21.296;2024-01-06T04:20:57;-1.40;99.90
55064;DHT22;40963;52.168;21.296;2024-01-06T04:23:23;-1.40;99.90
55064;DHT22;40963;52.168;21.296;2024-01-06T04:25:51;-1.40;99.90
55064;DHT22;40963;52.168;21.296;2024-01-06T04:28:17;-1.40;99.90
55064;DHT22;40963;52.168;21.296;2024-01-06T04:30:42;-1.40;99.90
55064;DHT22;40963;52.168;21.296;2024-01-06T04:33:08;-1.40;99.90
55064;DHT22;40963;52.168;21.296;2024-01-06T04:35:34;-1.40;99.90
55064;DHT22;40963;52.168;21.296;2024-01-06T04:38:01;-1.40;99.90
55064;DHT22;40963;52.168;21.296;2024-01-06T04:40:28;-1.30;99.90
55064;DHT22;40963;52.168;21.296;2024-01-06T04:42:53;-1.30;99.90
55064;DHT22;40963;52.168;21.296;2024-01-06T04:45:19;-1.30;99.90
55064;DHT22;40963;52.168;21.296;2024-01-06T04:47:45;-1.40;99.90
55064;DHT22;40963;52.168;21.296;2024-01-06T04:50:11;-1.40;99.90
55064;DHT22;40963;52.168;21.296;2024-01-06T04:52:37;-1.30;99.90
55064;DHT22;40963;52.168;21.296;2024-01-06T04:55:02;-1.40;99.90
55064;DHT22;40963;52.168;21.296;2024-01-06T04:57:28;-1.40;99.90
55064;DHT22;40963;52.168;21.296;2024-01-06T04:59:54;-1.40;99.90
55064;DHT22;40963;52.168;21.296;2024-01-06T05:02:20;-1.40;99.90
55064;DHT22;40963;52.168;21.296;2024-01-06T05:04:45;-1.40;99.90
55064;DHT22;40963;52.168;21.296;2024-01-06T05:07:11;-1.40;99.90
55064;DHT22;40963;52.168;21.296;2024-01-06T05:09:37;-1.40;99.90
55064;DHT22;40963;52.168;21.296;2024-01-06T05:12:03;-1.40;99.90
55064;DHT22;40963;52.168;21.296;2024-01-06T05:14:29;-1.40;99.90
55064;DHT22;40963;52.168;21.296;2024-01-06T05:16:55;-1.50;99.90
55064;DHT22;40963;52.168;21.296;2024-01-06T05:19:21;-1.50;99.90
55064;DHT22;40963;52.168;21.296;2024-01-06T05:21:48;-1.50;99.90
55064;DHT22;40963;52.168;21.296;2024-01-06T05:24:14;-1.50;99.90
55064;DHT22;40963;52.168;21.296;2024-01-06T05:26:40;-1.50;99.90
55064;DHT22;40963;52.168;21.296;2024-01-06T05:29:05;-1.50;99.90
55064;DHT22;40963;52.168;21.296;2024-01-06T05:31:31;-1.50;99.90
55064;DHT22;40963;52.168;21.296;2024-01-06T05:33:57;-1.50;99.90
55064;DHT22;40963;52.168;21.296;2024-01-06T05:36:23;-1.50;99.90
55064;DHT22;40963;52.168;21.296;2024-01-06T05:38:49;-1.60;99.90
55064;DHT22;40963;52.168;21.296;2024-01-06T05:41:16;-1.60;99.90
55064;DHT22;40963;52.168;21.296;2024-01-06T05:43:42;-1.60;99.90
55064;DHT22;40963;52.168;21.296;2024-01-06T05:46:07;-1.60;99.90
55064;DHT22;40963;52.168;21.296;2024-01-06T05:48:34;-1.60;99.90
55064;DHT22;40963;52.168;21.296;2024-01-06T05:51:00;-1.60;99.90
55064;DHT22;40963;52.168;21.296;2024-01-06T05:53:25;-1.60;99.90
55064;DHT22;40963;52.168;21.296;2024-01-06T05:55:52;-1.60;99.90
55064;DHT22;40963;52.168;21.296;2024-01-06T05:58:18;-1.60;99.90
55064;DHT22;40963;52.168;21.296;2024-01-06T06:00:43;-1.60;99.90
55064;DHT22;40963;52.168;21.296;2024-01-06T06:03:12;-1.60;99.90
55064;DHT22;40963;52.168;21.296;2024-01-06T06:05:38;-1.60;99.90
55064;DHT22;40963;52.168;21.296;2024-01-06T06:08:04;-1.60;99.90
55064;DHT22;40963;52.168;21.296;2024-01-06T06:10:30;-1.60;99.90
55064;DHT22;40963;52.168;21.296;2024-01-06T06:13:06;-1.60;99.90
55064;DHT22;40963;52.168;21.296;2024-01-06T06:15:32;-1.60;99.90
55064;DHT22;40963;52.168;21.296;2024-01-06T06:17:59;-1.60;99.90
55064;DHT22;40963;52.168;21.296;2024-01-06T06:20:26;-1.60;99.90
55064;DHT22;40963;52.168;21.296;2024-01-06T06:22:51;-1.60;99.90
55064;DHT22;40963;52.168;21.296;2024-01-06T06:25:17;-1.60;99.90
55064;DHT22;40963;52.168;21.296;2024-01-06T06:27:44;-1.60;99.90
55064;DHT22;40963;52.168;21.296;2024-01-06T06:30:10;-1.60;99.90
55064;DHT22;40963;52.168;21.296;2024-01-06T06:32:36;-1.60;99.90
55064;DHT22;40963;52.168;21.296;2024-01-06T06:35:01;-1.60;99.90
55064;DHT22;40963;52.168;21.296;2024-01-06T06:37:28;-1.60;99.90
55064;DHT22;40963;52.168;21.296;2024-01-06T06:39:54;-1.60;99.90
55064;DHT22;40963;52.168;21.296;2024-01-06T06:42:19;-1.60;99.90
55064;DHT22;40963;52.168;21.296;2024-01-06T06:44:45;-1.60;99.90
55064;DHT22;40963;52.168;21.296;2024-01-06T06:47:12;-1.60;99.90
55064;DHT22;40963;52.168;21.296;2024-01-06T06:49:38;-1.60;99.90
55064;DHT22;40963;52.168;21.296;2024-01-06T06:52:04;-1.60;99.90
55064;DHT22;40963;52.168;21.296;2024-01-06T06:54:32;-1.60;99.90
55064;DHT22;40963;52.168;21.296;2024-01-06T06:56:58;-1.50;99.90
55064;DHT22;40963;52.168;21.296;2024-01-06T06:59:23;-1.50;99.90
55064;DHT22;40963;52.168;21.296;2024-01-06T07:01:49;-1.50;99.90
55064;DHT22;40963;52.168;21.296;2024-01-06T07:04:17;-1.50;99.90
55064;DHT22;40963;52.168;21.296;2024-01-06T07:06:42;-1.50;99.90
55064;DHT22;40963;52.168;21.296;2024-01-06T07:09:08;-1.50;99.90
55064;DHT22;40963;52.168;21.296;2024-01-06T07:11:34;-1.50;99.90
55064;DHT22;40963;52.168;21.296;2024-01-06T07:13:59;-1.50;99.90
55064;DHT22;40963;52.168;21.296;2024-01-06T07:16:25;-1.50;99.90
55064;DHT22;40963;52.168;21.296;2024-01-06T07:18:51;-1.50;99.90
55064;DHT22;40963;52.168;21.296;2024-01-06T07:21:17;-1.50;99.90
55064;DHT22;40963;52.168;21.296;2024-01-06T07:23:43;-1.50;99.90
55064;DHT22;40963;52.168;21.296;2024-01-06T07:26:08;-1.50;99.90
55064;DHT22;40963;52.168;21.296;2024-01-06T07:28:34;-1.50;99.90
55064;DHT22;40963;52.168;21.296;2024-01-06T07:31:00;-1.50;99.90
55064;DHT22;40963;52.168;21.296;2024-01-06T07:33:26;-1.50;99.90
55064;DHT22;40963;52.168;21.296;2024-01-06T07:35:52;-1.50;99.90
55064;DHT22;40963;52.168;21.296;2024-01-06T07:38:17;-1.50;99.90
55064;DHT22;40963;52.168;21.296;2024-01-06T07:40:47;-1.50;99.90
55064;DHT22;40963;52.168;21.296;2024-01-06T07:43:14;-1.40;99.90
55064;DHT22;40963;52.168;21.296;2024-01-06T07:45:41;-1.40;99.90
55064;DHT22;40963;52.168;21.296;2024-01-06T07:48:07;-1.40;99.90
55064;DHT22;40963;52.168;21.296;2024-01-06T07:50:32;-1.40;99.90
55064;DHT22;40963;52.168;21.296;2024-01-06T07:52:59;-1.40;99.90
55064;DHT22;40963;52.168;21.296;2024-01-06T07:55:25;-1.30;99.90
55064;DHT22;40963;52.168;21.296;2024-01-06T07:57:54;-1.30;99.90
55064;DHT22;40963;52.168;21.296;2024-01-06T08:00:19;-1.30;99.90
55064;DHT22;40963;52.168;21.296;2024-01-06T08:02:45;-1.30;99.90
55064;DHT22;40963;52.168;21.296;2024-01-06T08:05:11;-1.30;99.90
55064;DHT22;40963;52.168;21.296;2024-01-06T08:07:37;-1.30;99.90
55064;DHT22;40963;52.168;21.296;2024-01-06T08:10:03;-1.30;99.90
55064;DHT22;40963;52.168;21.296;2024-01-06T08:12:31;-1.30;99.90
55064;DHT22;40963;52.168;21.296;2024-01-06T08:14:57;-1.30;99.90
55064;DHT22;40963;52.168;21.296;2024-01-06T08:17:23;-1.30;99.90
55064;DHT22;40963;52.168;21.296;2024-01-06T08:19:49;-1.30;99.90
55064;DHT22;40963;52.168;21.296;2024-01-06T08:22:14;-1.30;99.90
55064;DHT22;40963;52.168;21.296;2024-01-06T08:24:40;-1.30;99.90
55064;DHT22;40963;52.168;21.296;2024-01-06T08:27:06;-1.30;99.90
55064;DHT22;40963;52.168;21.296;2024-01-06T08:29:34;-1.30;99.90
55064;DHT22;40963;52.168;21.296;2024-01-06T08:32:01;-1.30;99.90
55064;DHT22;40963;52.168;21.296;2024-01-06T08:34:27;-1.30;99.90
55064;DHT22;40963;52.168;21.296;2024-01-06T08:36:52;-1.30;99.90
55064;DHT22;40963;52.168;21.296;2024-01-06T08:39:18;-1.30;99.90
55064;DHT22;40963;52.168;21.296;2024-01-06T08:41:45;-1.40;99.90
55064;DHT22;40963;52.168;21.296;2024-01-06T08:44:12;-1.40;99.90
55064;DHT22;40963;52.168;21.296;2024-01-06T08:46:37;-1.30;99.90
55064;DHT22;40963;52.168;21.296;2024-01-06T08:49:03;-1.40;99.90
55064;DHT22;40963;52.168;21.296;2024-01-06T08:51:29;-1.30;99.90
55064;DHT22;40963;52.168;21.296;2024-01-06T08:53:57;-1.30;99.90
55064;DHT22;40963;52.168;21.296;2024-01-06T08:56:26;-1.30;99.90
55064;DHT22;40963;52.168;21.296;2024-01-06T08:58:52;-1.30;99.90
55064;DHT22;40963;52.168;21.296;2024-01-06T09:01:17;-1.40;99.90
55064;DHT22;40963;52.168;21.296;2024-01-06T09:03:43;-1.40;99.90
55064;DHT22;40963;52.168;21.296;2024-01-06T09:06:09;-1.40;99.90
55064;DHT22;40963;52.168;21.296;2024-01-06T09:08:35;-1.40;99.90
55064;DHT22;40963;52.168;21.296;2024-01-06T09:11:01;-1.40;99.90
55064;DHT22;40963;52.168;21.296;2024-01-06T09:13:27;-1.40;99.90
55064;DHT22;40963;52.168;21.296;2024-01-06T09:15:53;-1.30;99.90
55064;DHT22;40963;52.168;21.296;2024-01-06T09:18:19;-1.40;99.90
55064;DHT22;40963;52.168;21.296;2024-01-06T09:20:44;-1.30;99.90
55064;DHT22;40963;52.168;21.296;2024-01-06T09:23:13;-1.30;99.90
55064;DHT22;40963;52.168;21.296;2024-01-06T09:25:39;-1.30;99.90
55064;DHT22;40963;52.168;21.296;2024-01-06T09:28:07;-1.30;99.90
55064;DHT22;40963;52.168;21.296;2024-01-06T09:30:33;-1.20;99.90
55064;DHT22;40963;52.168;21.296;2024-01-06T09:32:59;-1.20;99.90
55064;DHT22;40963;52.168;21.296;2024-01-06T09:35:26;-1.20;99.90
55064;DHT22;40963;52.168;21.296;2024-01-06T09:37:52;-1.20;99.90
55064;DHT22;40963;52.168;21.296;2024-01-06T09:40:26;-1.20;99.90
55064;DHT22;40963;52.168;21.296;2024-01-06T09:42:53;-1.20;99.90
55064;DHT22;40963;52.168;21.296;2024-01-06T09:45:19;-1.20;99.90
55064;DHT22;40963;52.168;21.296;2024-01-06T09:47:49;-1.20;99.90
55064;DHT22;40963;52.168;21.296;2024-01-06T09:50:18;-1.30;99.90
55064;DHT22;40963;52.168;21.296;2024-01-06T09:52:47;-1.20;99.90
55064;DHT22;40963;52.168;21.296;2024-01-06T09:55:25;-1.20;99.90
55064;DHT22;40963;52.168;21.296;2024-01-06T09:57:52;-1.20;99.90
55064;DHT22;40963;52.168;21.296;2024-01-06T10:00:19;-1.30;99.90
55064;DHT22;40963;52.168;21.296;2024-01-06T10:02:49;-1.30;99.90
55064;DHT22;40963;52.168;21.296;2024-01-06T10:05:17;-1.30;99.90
55064;DHT22;40963;52.168;21.296;2024-01-06T10:07:45;-1.30;99.90
55064;DHT22;40963;52.168;21.296;2024-01-06T10:10:11;-1.30;99.90
55064;DHT22;40963;52.168;21.296;2024-01-06T10:12:42;-1.30;99.90
55064;DHT22;40963;52.168;21.296;2024-01-06T10:15:08;-1.30;99.90
55064;DHT22;40963;52.168;21.296;2024-01-06T10:17:39;-1.20;99.90
55064;DHT22;40963;52.168;21.296;2024-01-06T10:20:10;-1.20;99.90
55064;DHT22;40963;52.168;21.296;2024-01-06T10:22:41;-1.30;99.90
55064;DHT22;40963;52.168;21.296;2024-01-06T10:25:08;-1.30;99.90
55064;DHT22;40963;52.168;21.296;2024-01-06T10:27:38;-1.30;99.90
55064;DHT22;40963;52.168;21.296;2024-01-06T10:30:08;-1.30;99.90
55064;DHT22;40963;52.168;21.296;2024-01-06T10:32:34;-1.30;99.90
55064;DHT22;40963;52.168;21.296;2024-01-06T10:35:00;-1.20;99.90
55064;DHT22;40963;52.168;21.296;2024-01-06T10:37:33;-1.20;99.90
55064;DHT22;40963;52.168;21.296;2024-01-06T10:40:15;-1.20;99.90
55064;DHT22;40963;52.168;21.296;2024-01-06T10:42:45;-1.20;99.90
55064;DHT22;40963;52.168;21.296;2024-01-06T10:45:12;-1.20;99.90
55064;DHT22;40963;52.168;21.296;2024-01-06T10:47:40;-1.20;99.90
55064;DHT22;40963;52.168;21.296;2024-01-06T10:50:07;-1.20;99.90
55064;DHT22;40963;52.168;21.296;2024-01-06T10:52:38;-1.30;99.90
55064;DHT22;40963;52.168;21.296;2024-01-06T10:55:05;-1.20;99.90
55064;DHT22;40963;52.168;21.296;2024-01-06T10:57:31;-1.20;99.90
55064;DHT22;40963;52.168;21.296;2024-01-06T11:00:00;-1.20;99.90
55064;DHT22;40963;52.168;21.296;2024-01-06T11:02:27;-1.20;99.90
55064;DHT22;40963;52.168;21.296;2024-01-06T11:04:53;-1.20;99.90
55064;DHT22;40963;52.168;21.296;2024-01-06T11:07:20;-1.20;99.90
55064;DHT22;40963;52.168;21.296;2024-01-06T11:10:16;-1.10;99.90
55064;DHT22;40963;52.168;21.296;2024-01-06T11:12:43;-1.10;99.90
55064;DHT22;40963;52.168;21.296;2024-01-06T11:15:09;-1.20;99.90
55064;DHT22;40963;52.168;21.296;2024-01-06T11:17:57;-1.20;99.90
55064;DHT22;40963;52.168;21.296;2024-01-06T11:20:24;-1.20;99.90
55064;DHT22;40963;52.168;21.296;2024-01-06T11:22:52;-1.20;99.90
55064;DHT22;40963;52.168;21.296;2024-01-06T11:25:19;-1.10;99.90
55064;DHT22;40963;52.168;21.296;2024-01-06T11:27:47;-1.20;99.90
55064;DHT22;40963;52.168;21.296;2024-01-06T11:30:24;-1.20;99.90
55064;DHT22;40963;52.168;21.296;2024-01-06T11:32:54;-1.10;99.90
55064;DHT22;40963;52.168;21.296;2024-01-06T11:35:21;-1.10;99.90
55064;DHT22;40963;52.168;21.296;2024-01-06T11:45:38;-1.10;99.90
55064;DHT22;40963;52.168;21.296;2024-01-06T11:48:10;-1.10;99.90
55064;DHT22;40963;52.168;21.296;2024-01-06T11:50:40;-1.20;99.90
55064;DHT22;40963;52.168;21.296;2024-01-06T11:53:08;-1.20;99.90
55064;DHT22;40963;52.168;21.296;2024-01-06T11:55:35;-1.20;99.90
55064;DHT22;40963;52.168;21.296;2024-01-06T11:58:03;-1.20;99.90
55064;DHT22;40963;52.168;21.296;2024-01-06T12:00:31;-1.20;99.90
55064;DHT22;40963;52.168;21.296;2024-01-06T12:03:01;-1.20;99.90
55064;DHT22;40963;52.168;21.296;2024-01-06T12:05:27;-1.20;99.90
55064;DHT22;40963;52.168;21.296;2024-01-06T12:07:58;-1.20;99.90
55064;DHT22;40963;52.168;21.296;2024-01-06T12:10:26;-1.20;99.90
55064;DHT22;40963;52.168;21.296;2024-01-06T12:13:00;-1.20;99.90
55064;DHT22;40963;52.168;21.296;2024-01-06T12:15:31;-1.20;99.90
55064;DHT22;40963;52.168;21.296;2024-01-06T12:17:57;-1.20;99.90
55064;DHT22;40963;52.168;21.296;2024-01-06T12:20:23;-1.20;99.90
55064;DHT22;40963;52.168;21.296;2024-01-06T12:22:53;-1.20;99.90
55064;DHT22;40963;52.168;21.296;2024-01-06T12:25:21;-1.20;99.90
55064;DHT22;40963;52.168;21.296;2024-01-06T12:27:48;-1.20;99.90
55064;DHT22;40963;52.168;21.296;2024-01-06T12:30:15;-1.20;99.90
55064;DHT22;40963;52.168;21.296;2024-01-06T12:32:43;-1.20;99.90
55064;DHT22;40963;52.168;21.296;2024-01-06T12:35:12;-1.20;99.90
55064;DHT22;40963;52.168;21.296;2024-01-06T12:37:38;-1.20;99.90
55064;DHT22;40963;52.168;21.296;2024-01-06T12:40:05;-1.10;99.90
55064;DHT22;40963;52.168;21.296;2024-01-06T12:42:31;-1.10;99.90
55064;DHT22;40963;52.168;21.296;2024-01-06T12:44:57;-1.10;99.90
55064;DHT22;40963;52.168;21.296;2024-01-06T12:47:22;-1.10;99.90
55064;DHT22;40963;52.168;21.296;2024-01-06T12:49:51;-1.10;99.90
55064;DHT22;40963;52.168;21.296;2024-01-06T12:52:17;-1.00;99.90
55064;DHT22;40963;52.168;21.296;2024-01-06T12:54:42;-1.00;99.90
55064;DHT22;40963;52.168;21.296;2024-01-06T12:57:08;-1.00;99.90
55064;DHT22;40963;52.168;21.296;2024-01-06T12:59:35;-1.00;99.90
55064;DHT22;40963;52.168;21.296;2024-01-06T13:02:00;-1.00;99.90
55064;DHT22;40963;52.168;21.296;2024-01-06T13:04:26;-1.00;99.90
55064;DHT22;40963;52.168;21.296;2024-01-06T13:06:52;-1.10;99.90
55064;DHT22;40963;52.168;21.296;2024-01-06T13:09:18;-1.10;99.90
55064;DHT22;40963;52.168;21.296;2024-01-06T13:11:45;-1.20;99.90
55064;DHT22;40963;52.168;21.296;2024-01-06T13:14:13;-1.10;99.90
55064;DHT22;40963;52.168;21.296;2024-01-06T13:16:39;-1.10;99.90
55064;DHT22;40963;52.168;21.296;2024-01-06T13:19:05;-1.10;99.90
55064;DHT22;40963;52.168;21.296;2024-01-06T13:21:30;-1.10;99.90
55064;DHT22;40963;52.168;21.296;2024-01-06T13:23:56;-1.10;99.90
55064;DHT22;40963;52.168;21.296;2024-01-06T13:26:28;-1.10;99.90
55064;DHT22;40963;52.168;21.296;2024-01-06T13:28:54;-1.10;99.90
55064;DHT22;40963;52.168;21.296;2024-01-06T13:31:19;-1.10;99.90
55064;DHT22;40963;52.168;21.296;2024-01-06T13:33:46;-1.10;99.90
55064;DHT22;40963;52.168;21.296;2024-01-06T13:36:11;-1.10;99.90
55064;DHT22;40963;52.168;21.296;2024-01-06T13:38:40;-1.10;99.90
55064;DHT22;40963;52.168;21.296;2024-01-06T13:41:05;-1.10;99.90
55064;DHT22;40963;52.168;21.296;2024-01-06T13:43:32;-1.20;99.90
55064;DHT22;40963;52.168;21.296;2024-01-06T13:45:59;-1.20;99.90
55064;DHT22;40963;52.168;21.296;2024-01-06T13:48:26;-1.20;99.90
55064;DHT22;40963;52.168;21.296;2024-01-06T13:50:52;-1.20;99.90
55064;DHT22;40963;52.168;21.296;2024-01-06T13:53:17;-1.20;99.90
55064;DHT22;40963;52.168;21.296;2024-01-06T13:55:43;-1.20;99.90
55064;DHT22;40963;52.168;21.296;2024-01-06T13:58:10;-1.20;99.90
55064;DHT22;40963;52.168;21.296;2024-01-06T14:00:36;-1.10;99.90
55064;DHT22;40963;52.168;21.296;2024-01-06T14:03:03;-1.20;99.90
55064;DHT22;40963;52.168;21.296;2024-01-06T14:05:29;-1.20;99.90
55064;DHT22;40963;52.168;21.296;2024-01-06T14:07:55;-1.20;99.90
55064;DHT22;40963;52.168;21.296;2024-01-06T14:10:21;-1.20;99.90
55064;DHT22;40963;52.168;21.296;2024-01-06T14:12:47;-1.20;99.90
55064;DHT22;40963;52.168;21.296;2024-01-06T14:15:13;-1.20;99.90
55064;DHT22;40963;52.168;21.296;2024-01-06T14:17:39;-1.20;99.20
55064;DHT22;40963;52.168;21.296;2024-01-06T14:20:07;-1.20;98.70
55064;DHT22;40963;52.168;21.296;2024-01-06T14:22:34;-1.20;98.60
55064;DHT22;40963;52.168;21.296;2024-01-06T14:25:01;-1.20;98.50
55064;DHT22;40963;52.168;21.296;2024-01-06T14:27:31;-1.20;98.10
55064;DHT22;40963;52.168;21.296;2024-01-06T14:29:57;-1.20;97.70
55064;DHT22;40963;52.168;21.296;2024-01-06T14:32:23;-1.20;97.70
55064;DHT22;40963;52.168;21.296;2024-01-06T14:34:50;-1.20;97.70
55064;DHT22;40963;52.168;21.296;2024-01-06T14:37:16;-1.20;96.40
55064;DHT22;40963;52.168;21.296;2024-01-06T14:39:42;-1.20;95.80
55064;DHT22;40963;52.168;21.296;2024-01-06T14:42:08;-1.20;95.50
55064;DHT22;40963;52.168;21.296;2024-01-06T14:44:34;-1.20;95.10
55064;DHT22;40963;52.168;21.296;2024-01-06T14:47:00;-1.20;95.10
55064;DHT22;40963;52.168;21.296;2024-01-06T14:49:26;-1.30;94.90
55064;DHT22;40963;52.168;21.296;2024-01-06T14:51:54;-1.30;95.10
55064;DHT22;40963;52.168;21.296;2024-01-06T14:54:20;-1.30;95.00
55064;DHT22;40963;52.168;21.296;2024-01-06T14:56:46;-1.30;94.80
55064;DHT22;40963;52.168;21.296;2024-01-06T14:59:12;-1.30;94.50
55064;DHT22;40963;52.168;21.296;2024-01-06T15:01:42;-1.30;94.60
55064;DHT22;40963;52.168;21.296;2024-01-06T15:04:08;-1.30;94.80
55064;DHT22;40963;52.168;21.296;2024-01-06T15:06:34;-1.30;94.60
55064;DHT22;40963;52.168;21.296;2024-01-06T15:09:05;-1.30;94.40
55064;DHT22;40963;52.168;21.296;2024-01-06T15:11:33;-1.20;94.10
55064;DHT22;40963;52.168;21.296;2024-01-06T15:14:00;-1.30;93.50
55064;DHT22;40963;52.168;21.296;2024-01-06T15:16:30;-1.30;93.10
55064;DHT22;40963;52.168;21.296;2024-01-06T15:18:56;-1.30;93.00
55064;DHT22;40963;52.168;21.296;2024-01-06T15:21:24;-1.30;93.00